Terminal Aerodrome Forecast
Issued by NWS Green Bay, WI

Home | Current Version | Previous Version | Text Only | Print | Product List | Glossary On
Versions: 1 2 3 4 5 6 7 8 9 10 11 12 13 14 15 16 17 18 19 20 21 22 23 24 25 26 27 28 29 30 31 32 33 34 35 36 37 38 39 40 41
000
FTUS43 KGRB 301727
TAFGRB
TAF
KGRB 301727Z 3018/3118 02014G25KT P6SM -SHRA SCT012 OVC035
      TEMPO 3018/3019 5SM -SHRA BKN012
     FM301900 03017G28KT P6SM SCT025 BKN100
      TEMPO 3019/3023 BKN025
     FM302300 03013KT P6SM SCT035 BKN250=

USA.gov is the U.S. government's official web portal to all federal, state and local government web resources and services.